createdAt,value
2019-02-14T00:37:01.868Z,0.80
2019-02-14T01:05:33.679Z,1.20
2019-02-14T01:34:46.630Z,1.10
2019-02-14T01:52:42.392Z,1.60
2019-02-14T01:55:33.130Z,1.50
2019-02-14T02:59:14.276Z,1.10
2019-02-14T03:02:16.849Z,1.10
2019-02-14T03:04:53.662Z,1.00
2019-02-14T03:07:36.461Z,0.90
2019-02-14T04:03:59.854Z,0.70
2019-02-14T04:12:57.335Z,0.70
2019-02-14T04:15:37.877Z,0.70
2019-02-14T04:40:34.699Z,0.80
2019-02-14T04:43:54.698Z,0.80
2019-02-14T04:47:30.837Z,0.80
2019-02-14T05:41:54.723Z,0.40
2019-02-14T05:44:44.594Z,0.50
2019-02-14T06:29:53.362Z,0.40
2019-02-14T06:32:23.158Z,0.40
2019-02-14T06:44:23.360Z,0.30
2019-02-14T06:46:52.510Z,0.30
2019-02-14T06:49:21.927Z,0.30
2019-02-14T06:51:51.216Z,0.30
2019-02-14T06:54:23.462Z,0.30
2019-02-14T06:56:53.055Z,0.20
2019-02-14T06:59:26.844Z,0.20
2019-02-14T07:01:54.979Z,0.20
2019-02-14T07:05:26.389Z,0.20
2019-02-14T07:06:59.053Z,0.20
2019-02-14T07:09:25.924Z,0.30
2019-02-14T07:11:55.312Z,0.30
2019-02-14T07:14:24.587Z,0.30
2019-02-14T07:16:53.771Z,0.30
2019-02-14T07:19:22.955Z,0.20
2019-02-14T07:24:52.667Z,0.20
2019-02-14T07:27:24.589Z,0.30
2019-02-14T07:29:53.974Z,0.30
2019-02-14T07:32:23.209Z,0.40
2019-02-14T07:35:20.072Z,0.50
2019-02-14T07:37:52.055Z,0.60
2019-02-14T07:40:23.825Z,0.60
2019-02-14T07:42:53.506Z,0.60
2019-02-14T07:45:22.861Z,0.70
2019-02-14T07:53:55.384Z,0.90
2019-02-14T07:56:24.799Z,0.90
2019-02-14T07:58:53.895Z,1.00
2019-02-14T08:01:23.257Z,1.00
2019-02-14T08:03:55.158Z,1.10
2019-02-14T08:06:24.540Z,1.20
2019-02-14T08:08:54.315Z,1.20
2019-02-14T08:11:23.567Z,1.30
2019-02-14T08:13:52.778Z,1.60
2019-02-14T08:16:21.798Z,1.70
2019-02-14T08:18:51.205Z,1.90
2019-02-14T08:21:21.774Z,2.00
2019-02-14T08:23:52.071Z,2.20
2019-02-14T08:26:22.181Z,2.40
2019-02-14T08:28:53.186Z,2.50
2019-02-14T08:31:22.685Z,2.70
2019-02-14T08:33:51.795Z,2.80
2019-02-14T08:36:23.602Z,2.80
2019-02-14T08:38:52.487Z,2.80
2019-02-14T08:41:21.774Z,2.80
2019-02-14T08:43:51.406Z,2.90
2019-02-14T08:46:20.383Z,2.90
2019-02-14T08:48:54.753Z,3.00
2019-02-14T08:51:24.103Z,3.10
2019-02-14T08:53:53.002Z,3.10
2019-02-14T08:56:23.671Z,3.20
2019-02-14T08:58:53.461Z,3.40
2019-02-14T09:01:22.459Z,3.50
2019-02-14T09:03:51.917Z,3.70
2019-02-14T09:06:21.595Z,3.80
2019-02-14T09:08:50.855Z,4.00
2019-02-14T09:11:20.773Z,4.10
2019-02-14T09:13:51.010Z,4.20
2019-02-14T09:17:21.556Z,4.30
2019-02-14T09:23:23.755Z,4.60
2019-02-14T09:29:14.248Z,4.80
2019-02-14T09:31:46.981Z,5.00
2019-02-14T09:34:22.101Z,5.10
2019-02-14T09:36:54.054Z,5.20
2019-02-14T09:39:23.281Z,5.40
2019-02-14T09:41:52.495Z,5.60
2019-02-14T09:44:21.812Z,5.90
2019-02-14T09:46:51.270Z,6.20
2019-02-14T09:49:22.184Z,6.50
2019-02-14T09:51:52.022Z,6.60
2019-02-14T09:54:24.588Z,6.60
2019-02-14T09:56:53.505Z,6.50
2019-02-14T09:59:23.043Z,6.30
2019-02-14T10:01:52.162Z,6.40
2019-02-14T10:04:24.863Z,6.50
2019-02-14T10:06:53.883Z,6.50
2019-02-14T10:09:23.357Z,6.50
2019-02-14T10:11:53.210Z,6.50
2019-02-14T10:14:22.279Z,6.50
2019-02-14T10:16:54.300Z,6.70
2019-02-14T10:19:23.338Z,7.20
2019-02-14T10:21:52.434Z,7.10
2019-02-14T10:24:24.797Z,6.90
2019-02-14T10:26:53.786Z,7.00
2019-02-14T10:29:22.770Z,7.00
2019-02-14T10:31:55.548Z,7.00
2019-02-14T10:37:22.054Z,7.40
2019-02-14T10:39:54.230Z,7.60
2019-02-14T10:42:23.608Z,7.60
2019-02-14T10:44:53.131Z,7.60
2019-02-14T10:47:22.213Z,7.60
2019-02-14T10:49:51.186Z,7.60
2019-02-14T10:52:20.500Z,7.70
2019-02-14T10:54:50.399Z,7.80
2019-02-14T10:57:23.428Z,7.90
2019-02-14T10:59:53.329Z,8.10
2019-02-14T11:02:22.317Z,8.70
2019-02-14T11:04:53.291Z,9.30
2019-02-14T11:07:22.919Z,9.90
2019-02-14T11:09:52.349Z,11.20
2019-02-14T11:12:21.963Z,11.00
2019-02-14T11:14:51.363Z,10.20
2019-02-14T11:17:20.700Z,9.70
2019-02-14T11:19:50.782Z,9.30
2019-02-14T11:22:20.562Z,9.00
2019-02-14T11:24:50.217Z,8.80
2019-02-14T11:27:20.618Z,8.70
2019-02-14T11:29:52.456Z,8.80
2019-02-14T11:32:21.952Z,8.80
2019-02-14T11:34:51.581Z,8.90
2019-02-14T11:37:21.592Z,9.00
2019-02-14T11:39:53.073Z,9.00
2019-02-14T11:42:23.662Z,9.00
2019-02-14T11:44:52.818Z,9.10
2019-02-14T11:47:24.968Z,9.30
2019-02-14T11:49:58.795Z,9.20
2019-02-14T11:52:26.710Z,9.20
2019-02-14T11:54:58.837Z,9.20
2019-02-14T11:57:31.641Z,9.40
2019-02-14T12:00:02.337Z,9.40
2019-02-14T12:02:32.078Z,9.30
2019-02-14T12:05:01.228Z,9.60
2019-02-14T12:07:30.377Z,9.50
2019-02-14T12:09:59.966Z,9.50
2019-02-14T12:12:29.319Z,9.50
2019-02-14T12:14:58.873Z,9.50
2019-02-14T12:17:27.922Z,9.50
2019-02-14T12:19:57.365Z,9.50
2019-02-14T12:22:26.462Z,9.60
2019-02-14T12:24:55.621Z,9.70
2019-02-14T12:27:24.894Z,9.70
2019-02-14T12:29:53.857Z,9.80
2019-02-14T12:32:23.086Z,9.80
2019-02-14T12:34:51.930Z,9.80
2019-02-14T12:37:21.101Z,9.90
2019-02-14T12:39:49.992Z,9.90
2019-02-14T12:42:19.066Z,10.00
2019-02-14T12:44:48.042Z,10.00
2019-02-14T12:47:17.130Z,10.00
2019-02-14T12:49:45.969Z,10.10
2019-02-14T12:52:15.071Z,10.10
2019-02-14T12:54:44.837Z,10.10
2019-02-14T12:57:13.725Z,10.20
2019-02-14T12:59:45.846Z,10.20
2019-02-14T13:02:15.166Z,10.20
2019-02-14T13:04:44.338Z,10.30
2019-02-14T13:07:13.733Z,10.30
2019-02-14T13:09:42.740Z,10.40
2019-02-14T13:12:12.590Z,10.40
2019-02-14T13:14:42.677Z,10.40
2019-02-14T13:17:11.989Z,10.40
2019-02-14T13:19:40.933Z,10.50
2019-02-14T13:22:10.257Z,10.60
2019-02-14T13:24:39.426Z,10.60
2019-02-14T13:27:08.346Z,10.50
2019-02-14T13:29:37.489Z,10.50
2019-02-14T13:32:06.414Z,10.50
2019-02-14T13:34:35.671Z,10.50
2019-02-14T13:37:06.010Z,10.50
2019-02-14T13:39:35.116Z,10.50
2019-02-14T13:42:04.072Z,10.50
2019-02-14T13:44:33.300Z,10.40
2019-02-14T13:47:02.502Z,10.30
2019-02-14T13:49:32.805Z,10.20
2019-02-14T13:52:01.732Z,10.10
2019-02-14T13:54:31.208Z,10.10
2019-02-14T13:57:00.118Z,10.10
2019-02-14T13:59:29.115Z,10.00
2019-02-14T14:01:58.046Z,10.00
2019-02-14T14:04:26.980Z,10.00
2019-02-14T14:06:56.138Z,10.00
2019-02-14T14:09:25.830Z,10.00
2019-02-14T14:11:54.825Z,10.10
2019-02-14T14:14:24.375Z,10.20
2019-02-14T14:16:53.983Z,10.20
2019-02-14T14:19:23.001Z,10.20
2019-02-14T14:21:52.321Z,10.10
2019-02-14T14:24:21.612Z,10.00
2019-02-14T14:26:50.833Z,10.00
2019-02-14T14:29:19.689Z,10.00
2019-02-14T14:31:49.765Z,10.10
2019-02-14T14:34:18.593Z,10.20
2019-02-14T14:36:47.748Z,10.20
2019-02-14T14:39:16.857Z,10.20
2019-02-14T14:41:46.029Z,10.20
2019-02-14T14:44:30.134Z,10.20
2019-02-14T14:47:02.299Z,10.10
2019-02-14T14:49:31.460Z,10.10
2019-02-14T14:52:00.305Z,10.10
2019-02-14T14:54:29.530Z,10.10
2019-02-14T14:56:58.733Z,10.10
2019-02-14T14:59:28.266Z,10.10
2019-02-14T15:01:57.549Z,10.10
2019-02-14T15:04:26.866Z,10.10
2019-02-14T15:06:56.047Z,10.10
2019-02-14T15:09:25.512Z,10.10
2019-02-14T15:11:54.582Z,10.10
2019-02-14T15:14:24.257Z,10.20
2019-02-14T15:16:53.818Z,10.20
2019-02-14T15:19:23.184Z,10.10
2019-02-14T15:21:52.703Z,10.10
2019-02-14T15:24:22.474Z,10.10
2019-02-14T15:26:52.088Z,10.10
2019-02-14T15:29:21.259Z,10.10
2019-02-14T15:31:51.018Z,10.10
2019-02-14T15:34:20.046Z,10.00
2019-02-14T15:36:51.703Z,9.90
2019-02-14T15:39:20.714Z,9.90
2019-02-14T15:41:49.848Z,9.80
2019-02-14T15:44:18.890Z,9.70
2019-02-14T15:46:48.090Z,9.60
2019-02-14T15:49:17.879Z,9.50
2019-02-14T15:51:47.106Z,9.50
2019-02-14T15:54:15.976Z,9.40
2019-02-14T15:56:45.190Z,9.50
2019-02-14T15:59:14.357Z,9.30
2019-02-14T16:01:44.411Z,9.20
2019-02-14T16:04:13.650Z,9.00
2019-02-14T16:06:42.913Z,8.90
2019-02-14T16:09:12.652Z,8.80
2019-02-14T16:11:42.636Z,8.60
2019-02-14T16:14:12.010Z,8.70
2019-02-14T16:16:41.204Z,8.60
2019-02-14T16:19:11.270Z,8.40
2019-02-14T16:21:41.596Z,8.20
2019-02-14T16:24:10.548Z,8.20
2019-02-14T16:26:39.852Z,8.10
2019-02-14T16:29:09.214Z,7.90
2019-02-14T16:31:38.301Z,7.70
2019-02-14T16:34:07.631Z,7.70
2019-02-14T16:36:36.811Z,7.60
2019-02-14T16:39:06.535Z,7.40
2019-02-14T16:41:35.564Z,7.20
2019-02-14T16:46:52.987Z,7.10
2019-02-14T16:49:22.235Z,7.10
2019-02-14T16:51:51.578Z,6.90
2019-02-14T16:54:22.606Z,6.80
2019-02-14T16:56:51.595Z,6.60
2019-02-14T16:59:20.710Z,6.50
2019-02-14T17:01:49.588Z,6.40
2019-02-14T17:04:19.383Z,6.20
2019-02-14T17:06:48.283Z,6.10
2019-02-14T17:09:36.362Z,6.20
2019-02-14T17:12:05.271Z,6.10
2019-02-14T17:14:34.512Z,6.00
2019-02-14T17:17:03.707Z,5.90
2019-02-14T17:19:32.837Z,5.90
2019-02-14T17:22:02.433Z,5.80
2019-02-14T17:24:31.398Z,5.70
2019-02-14T17:27:00.316Z,5.50
2019-02-14T17:29:29.180Z,5.30
2019-02-14T17:31:58.111Z,5.40
2019-02-14T17:34:27.028Z,5.20
2019-02-14T17:37:15.767Z,5.10
2019-02-14T17:39:44.602Z,5.00
2019-02-14T17:42:13.498Z,4.90
2019-02-14T17:44:42.461Z,4.90
2019-02-14T17:47:11.616Z,4.90
2019-02-14T17:49:40.647Z,4.80
2019-02-14T17:52:10.184Z,4.80
2019-02-14T17:54:39.644Z,4.70
2019-02-14T17:57:08.958Z,4.60
2019-02-14T17:59:37.859Z,4.50
2019-02-14T18:02:06.811Z,4.40
2019-02-14T18:04:35.674Z,4.30
2019-02-14T18:07:04.866Z,4.30
2019-02-14T18:09:34.105Z,4.20
2019-02-14T18:12:03.578Z,4.40
2019-02-14T18:14:32.755Z,4.30
2019-02-14T18:17:01.933Z,4.10
2019-02-14T18:19:31.128Z,4.00
2019-02-14T18:22:00.218Z,4.00
2019-02-14T18:24:29.364Z,4.00
2019-02-14T18:26:58.520Z,3.90
2019-02-14T18:29:27.813Z,3.90
2019-02-14T18:31:56.843Z,4.10
2019-02-14T18:34:26.036Z,4.00
2019-02-14T18:36:58.250Z,4.20
2019-02-14T18:39:27.384Z,4.20
2019-02-14T18:41:57.043Z,4.10
2019-02-14T18:44:26.616Z,4.00
2019-02-14T18:46:55.735Z,3.90
2019-02-14T18:49:25.171Z,3.80
2019-02-14T18:51:54.255Z,3.80
2019-02-14T18:54:23.543Z,3.70
2019-02-14T18:56:52.677Z,3.60
2019-02-14T18:59:22.758Z,3.40
2019-02-14T19:01:51.781Z,3.40
2019-02-14T19:04:21.060Z,3.40
2019-02-14T19:06:51.597Z,3.60
2019-02-14T19:09:20.914Z,3.70
2019-02-14T19:11:50.136Z,3.70
2019-02-14T19:14:19.183Z,3.60
2019-02-14T19:16:48.459Z,3.50
2019-02-14T19:19:25.220Z,3.40
2019-02-14T19:21:54.895Z,3.30
2019-02-14T19:24:24.311Z,3.30
2019-02-14T19:26:53.427Z,3.30
2019-02-14T19:29:22.816Z,3.30
2019-02-14T19:31:53.184Z,3.20
2019-02-14T19:34:22.675Z,3.30
2019-02-14T19:36:51.806Z,3.20
2019-02-14T19:39:21.591Z,3.20
2019-02-14T19:41:53.941Z,3.10
2019-02-14T19:44:24.742Z,3.10
2019-02-14T19:46:53.840Z,3.00
2019-02-14T19:49:23.144Z,3.10
2019-02-14T19:51:52.176Z,3.30
2019-02-14T19:54:21.415Z,3.30
2019-02-14T19:56:50.378Z,3.20
2019-02-14T19:59:19.577Z,3.00
2019-02-14T20:01:49.945Z,3.10
2019-02-14T20:04:19.534Z,3.10
2019-02-14T20:06:48.898Z,3.00
2019-02-14T20:09:17.964Z,2.90
2019-02-14T20:11:47.041Z,3.00
2019-02-14T20:14:16.024Z,3.10
2019-02-14T20:16:45.266Z,3.00
2019-02-14T20:19:14.545Z,3.00
2019-02-14T20:21:43.821Z,3.00
2019-02-14T20:24:13.095Z,3.00
2019-02-14T20:26:42.144Z,2.90
2019-02-14T20:29:12.682Z,2.90
2019-02-14T20:31:41.846Z,2.90
2019-02-14T20:34:11.030Z,2.90
2019-02-14T20:36:40.374Z,2.90
2019-02-14T20:39:09.365Z,3.00
2019-02-14T20:41:45.588Z,3.00
2019-02-14T20:44:10.122Z,2.70
2019-02-14T20:46:39.101Z,2.60
2019-02-14T20:49:07.916Z,2.60
2019-02-14T20:51:38.714Z,2.70
2019-02-14T20:54:10.518Z,2.70
2019-02-14T20:56:39.707Z,2.80
2019-02-14T20:59:09.017Z,2.90
2019-02-14T21:01:38.232Z,2.90
2019-02-14T21:04:09.001Z,2.90
2019-02-14T21:06:37.937Z,2.90
2019-02-14T21:09:07.001Z,2.90
2019-02-14T21:11:36.043Z,3.00
2019-02-14T21:14:05.100Z,3.00
2019-02-14T21:16:34.261Z,2.90
2019-02-14T21:21:52.114Z,2.80
2019-02-14T21:24:21.109Z,2.90
2019-02-14T21:26:50.006Z,2.80
2019-02-14T21:29:19.042Z,2.80
2019-02-14T21:31:48.312Z,2.70
2019-02-14T21:34:17.207Z,2.70
2019-02-14T21:36:46.293Z,2.70
2019-02-14T21:39:16.023Z,2.80
2019-02-14T21:41:45.106Z,2.80
2019-02-14T21:44:14.468Z,2.70
2019-02-14T21:46:43.516Z,2.60
2019-02-14T21:49:12.806Z,2.50
2019-02-14T21:51:42.702Z,2.50
2019-02-14T21:54:16.714Z,2.40
2019-02-14T21:56:43.146Z,2.40
2019-02-14T21:59:12.354Z,2.30
2019-02-14T22:01:41.500Z,2.30
2019-02-14T22:04:10.838Z,2.50
2019-02-14T22:06:39.921Z,2.60
2019-02-14T22:09:09.177Z,2.50
2019-02-14T22:11:38.396Z,2.50
2019-02-14T22:14:07.776Z,2.50
2019-02-14T22:16:36.792Z,2.40
2019-02-14T22:19:06.093Z,2.50
2019-02-14T22:21:35.535Z,2.40
2019-02-14T22:24:04.557Z,2.40
2019-02-14T22:26:33.776Z,2.50
2019-02-14T22:29:02.840Z,2.60
2019-02-14T22:31:32.239Z,2.40
2019-02-14T22:34:01.661Z,2.40
2019-02-14T22:36:31.496Z,2.30
2019-02-14T22:39:00.713Z,2.40
2019-02-14T22:41:29.647Z,2.30
2019-02-14T22:43:59.457Z,2.20
2019-02-14T22:46:29.417Z,2.20
2019-02-14T22:48:58.879Z,2.10
2019-02-14T22:51:28.193Z,2.10
2019-02-14T22:53:58.295Z,2.10
2019-02-14T22:56:27.326Z,2.20
2019-02-14T22:58:56.511Z,2.00
2019-02-14T23:01:25.621Z,2.10
2019-02-14T23:03:54.597Z,2.10
2019-02-14T23:06:23.647Z,2.10
2019-02-14T23:08:52.669Z,2.10
2019-02-14T23:11:22.038Z,2.00
2019-02-14T23:13:51.009Z,2.00
2019-02-14T23:16:20.284Z,2.00
2019-02-14T23:18:49.825Z,2.00
2019-02-14T23:21:18.687Z,2.00
2019-02-14T23:23:47.714Z,2.00
2019-02-14T23:26:16.702Z,1.90
2019-02-14T23:28:46.163Z,1.90
2019-02-14T23:31:16.010Z,1.90
2019-02-14T23:33:44.886Z,1.90
2019-02-14T23:36:13.909Z,2.00
2019-02-14T23:38:43.730Z,1.80
2019-02-14T23:41:13.289Z,1.80
2019-02-14T23:43:42.387Z,1.90
2019-02-14T23:46:11.402Z,1.80
2019-02-14T23:48:40.430Z,1.80
2019-02-14T23:51:09.309Z,1.70
2019-02-14T23:53:38.419Z,1.70
2019-02-14T23:56:08.789Z,1.90
2019-02-14T23:58:38.099Z,1.80
